createdAt,value
2022-09-03T00:01:32.330Z,100.00
2022-09-03T00:04:06.827Z,100.00
2022-09-03T00:06:42.653Z,100.00
2022-09-03T00:09:16.996Z,100.00
2022-09-03T00:12:05.905Z,100.00
2022-09-03T00:14:40.546Z,100.00
2022-09-03T00:17:13.494Z,100.00
2022-09-03T00:19:47.216Z,100.00
2022-09-03T00:22:22.125Z,100.00
2022-09-03T00:24:52.343Z,100.00
2022-09-03T00:27:25.545Z,100.00
2022-09-03T00:29:58.449Z,100.00
2022-09-03T00:32:32.252Z,100.00
2022-09-03T00:35:05.562Z,100.00
2022-09-03T00:37:38.219Z,100.00
2022-09-03T00:40:13.997Z,100.00
2022-09-03T00:42:47.822Z,100.00
2022-09-03T00:45:24.165Z,100.00
2022-09-03T00:48:10.630Z,100.00
2022-09-03T00:50:49.301Z,100.00
2022-09-03T00:53:28.189Z,100.00
2022-09-03T00:56:02.919Z,100.00
2022-09-03T00:58:41.245Z,100.00
2022-09-03T01:01:24.269Z,100.00
2022-09-03T01:04:01.046Z,100.00
2022-09-03T01:06:36.112Z,100.00
2022-09-03T01:09:22.356Z,100.00
2022-09-03T01:11:59.796Z,100.00
2022-09-03T01:14:41.745Z,100.00
2022-09-03T01:17:17.221Z,100.00
2022-09-03T01:20:03.350Z,100.00
2022-09-03T01:22:52.666Z,100.00
2022-09-03T01:25:44.557Z,100.00
2022-09-03T01:28:24.473Z,100.00
2022-09-03T01:30:58.731Z,100.00
2022-09-03T01:33:34.323Z,100.00
2022-09-03T01:36:10.225Z,100.00
2022-09-03T01:38:45.385Z,100.00
2022-09-03T01:41:35.337Z,100.00
2022-09-03T01:44:13.398Z,100.00
2022-09-03T01:46:45.851Z,100.00
2022-09-03T01:49:23.883Z,100.00
2022-09-03T01:51:57.646Z,100.00
2022-09-03T01:54:43.114Z,100.00
2022-09-03T01:57:38.689Z,100.00
2022-09-03T02:00:15.081Z,100.00
2022-09-03T02:02:47.436Z,100.00
2022-09-03T02:05:20.570Z,100.00
2022-09-03T02:07:59.200Z,100.00
2022-09-03T02:10:32.357Z,100.00
2022-09-03T02:13:08.737Z,100.00
2022-09-03T02:15:43.495Z,100.00
2022-09-03T02:18:18.183Z,100.00
2022-09-03T02:20:48.230Z,100.00
2022-09-03T02:23:17.953Z,100.00
2022-09-03T02:25:57.617Z,100.00
2022-09-03T02:28:27.377Z,100.00
2022-09-03T02:30:59.599Z,100.00
2022-09-03T02:33:29.270Z,100.00
2022-09-03T02:35:58.758Z,100.00
2022-09-03T02:38:29.457Z,100.00
2022-09-03T02:40:58.913Z,100.00
2022-09-03T02:43:32.921Z,100.00
2022-09-03T02:46:07.097Z,100.00
2022-09-03T02:48:36.898Z,100.00
2022-09-03T02:51:13.830Z,100.00
2022-09-03T02:53:44.305Z,100.00
2022-09-03T02:56:13.936Z,100.00
2022-09-03T02:58:43.675Z,100.00
2022-09-03T03:01:21.760Z,100.00
2022-09-03T03:03:54.608Z,100.00
2022-09-03T03:06:24.443Z,100.00
2022-09-03T03:08:57.129Z,100.00
2022-09-03T03:11:27.339Z,100.00
2022-09-03T03:13:56.842Z,100.00
2022-09-03T03:16:28.910Z,100.00
2022-09-03T03:18:58.981Z,100.00
2022-09-03T03:21:28.828Z,100.00
2022-09-03T03:23:58.310Z,100.00
2022-09-03T03:26:27.813Z,100.00
2022-09-03T03:29:00.651Z,100.00
2022-09-03T03:31:33.578Z,100.00
2022-09-03T03:34:04.984Z,100.00
2022-09-03T03:36:36.250Z,100.00
2022-09-03T03:39:06.406Z,100.00
2022-09-03T03:41:38.082Z,100.00
2022-09-03T03:44:09.634Z,100.00
2022-09-03T03:46:43.872Z,100.00
2022-09-03T03:49:14.002Z,100.00
2022-09-03T03:51:43.550Z,100.00
2022-09-03T03:54:13.042Z,100.00
2022-09-03T03:56:55.646Z,100.00
2022-09-03T03:59:25.465Z,100.00
2022-09-03T04:01:57.636Z,100.00
2022-09-03T04:04:27.192Z,100.00
2022-09-03T04:06:56.654Z,100.00
2022-09-03T04:09:26.158Z,100.00
2022-09-03T04:11:57.883Z,100.00
2022-09-03T04:14:27.523Z,100.00
2022-09-03T04:16:59.811Z,100.00
2022-09-03T04:19:30.285Z,100.00
2022-09-03T04:22:00.254Z,100.00
2022-09-03T04:24:30.057Z,100.00
2022-09-03T04:26:59.561Z,100.00
2022-09-03T04:29:31.362Z,100.00
2022-09-03T04:32:16.032Z,100.00
2022-09-03T04:34:45.536Z,100.00
2022-09-03T04:37:16.542Z,100.00
2022-09-03T04:39:46.113Z,100.00
2022-09-03T04:42:15.653Z,100.00
2022-09-03T04:44:45.139Z,100.00
2022-09-03T04:47:17.938Z,100.00
2022-09-03T04:49:47.450Z,100.00
2022-09-03T04:52:17.149Z,100.00
2022-09-03T04:54:46.597Z,100.00
2022-09-03T04:57:16.117Z,100.00
2022-09-03T04:59:45.665Z,100.00
2022-09-03T05:02:17.862Z,100.00
2022-09-03T05:04:47.370Z,100.00
2022-09-03T05:07:16.922Z,100.00
2022-09-03T05:09:49.986Z,100.00
2022-09-03T05:12:20.831Z,100.00
2022-09-03T05:14:50.318Z,100.00
2022-09-03T05:17:22.352Z,100.00
2022-09-03T05:19:51.843Z,100.00
2022-09-03T05:22:21.496Z,100.00
2022-09-03T05:24:51.331Z,100.00
2022-09-03T05:27:20.878Z,100.00
2022-09-03T05:29:50.380Z,100.00
2022-09-03T05:32:22.579Z,100.00
2022-09-03T05:34:52.086Z,100.00
2022-09-03T05:37:23.379Z,100.00
2022-09-03T05:39:53.955Z,100.00
2022-09-03T05:42:23.447Z,100.00
2022-09-03T05:44:53.027Z,100.00
2022-09-03T05:47:25.118Z,100.00
2022-09-03T05:49:54.722Z,100.00
2022-09-03T05:52:24.455Z,100.00
2022-09-03T05:54:53.898Z,100.00
2022-09-03T05:57:23.396Z,100.00
2022-09-03T05:59:53.202Z,100.00
2022-09-03T06:02:25.360Z,100.00
2022-09-03T06:04:56.075Z,100.00
2022-09-03T06:07:25.552Z,100.00
2022-09-03T06:09:55.117Z,100.00
2022-09-03T06:12:24.722Z,100.00
2022-09-03T06:14:54.198Z,100.00
2022-09-03T06:17:28.373Z,100.00
2022-09-03T06:19:57.809Z,100.00
2022-09-03T06:22:30.118Z,100.00
2022-09-03T06:24:59.685Z,100.00
2022-09-03T06:27:29.193Z,100.00
2022-09-03T06:29:59.596Z,100.00
2022-09-03T06:32:31.681Z,100.00
2022-09-03T06:35:01.181Z,100.00
2022-09-03T06:37:30.668Z,100.00
2022-09-03T06:40:00.375Z,100.00
2022-09-03T06:42:30.033Z,100.00
2022-09-03T06:44:59.517Z,100.00
2022-09-03T06:47:31.954Z,100.00
2022-09-03T06:50:02.214Z,100.00
2022-09-03T06:52:31.839Z,100.00
2022-09-03T06:55:01.311Z,100.00
2022-09-03T06:57:30.829Z,100.00
2022-09-03T07:00:00.410Z,100.00
2022-09-03T07:02:33.558Z,100.00
2022-09-03T07:05:03.155Z,100.00
2022-09-03T07:07:34.100Z,100.00
2022-09-03T07:10:03.702Z,100.00
2022-09-03T07:12:37.785Z,100.00
2022-09-03T07:15:07.905Z,100.00
2022-09-03T07:17:40.181Z,100.00
2022-09-03T07:20:10.508Z,100.00
2022-09-03T07:22:40.013Z,100.00
2022-09-03T07:25:10.445Z,100.00
2022-09-03T07:27:40.058Z,100.00
2022-09-03T07:30:11.334Z,100.00
2022-09-03T07:32:43.382Z,100.00
2022-09-03T07:35:13.051Z,100.00
2022-09-03T07:37:44.369Z,100.00
2022-09-03T07:40:15.580Z,100.00
2022-09-03T07:42:45.050Z,100.00
2022-09-03T07:45:14.521Z,100.00
2022-09-03T07:47:52.349Z,100.00
2022-09-03T07:50:21.946Z,100.00
2022-09-03T07:52:51.617Z,100.00
2022-09-03T07:55:21.069Z,100.00
2022-09-03T07:57:50.578Z,100.00
2022-09-03T08:00:20.356Z,100.00
2022-09-03T08:02:54.857Z,100.00
2022-09-03T08:05:25.734Z,100.00
2022-09-03T08:07:55.295Z,100.00
2022-09-03T08:10:25.734Z,100.00
2022-09-03T08:12:55.346Z,100.00
2022-09-03T08:15:24.890Z,100.00
2022-09-03T08:18:03.450Z,100.00
2022-09-03T08:20:35.375Z,100.00
2022-09-03T08:23:05.526Z,100.00
2022-09-03T08:25:35.323Z,100.00
2022-09-03T08:28:04.921Z,100.00
2022-09-03T08:30:34.888Z,100.00
2022-09-03T08:33:08.566Z,100.00
2022-09-03T08:35:38.312Z,100.00
2022-09-03T08:38:10.859Z,100.00
2022-09-03T08:40:42.175Z,100.00
2022-09-03T08:43:17.526Z,100.00
2022-09-03T08:45:47.359Z,100.00
2022-09-03T08:48:25.914Z,100.00
2022-09-03T08:51:00.039Z,100.00
2022-09-03T08:53:34.770Z,100.00
2022-09-03T08:56:07.468Z,100.00
2022-09-03T08:58:38.643Z,100.00
2022-09-03T09:01:15.817Z,100.00
2022-09-03T09:03:54.427Z,100.00
2022-09-03T09:06:26.954Z,100.00
2022-09-03T09:09:10.517Z,100.00
2022-09-03T09:11:53.703Z,100.00
2022-09-03T09:14:27.557Z,100.00
2022-09-03T09:17:02.619Z,100.00
2022-09-03T09:19:42.426Z,100.00
2022-09-03T09:22:14.100Z,100.00
2022-09-03T09:24:45.532Z,100.00
2022-09-03T09:27:17.484Z,100.00
2022-09-03T09:29:52.340Z,100.00
2022-09-03T09:32:22.877Z,100.00
2022-09-03T09:34:55.030Z,100.00
2022-09-03T09:37:24.633Z,100.00
2022-09-03T09:39:59.440Z,100.00
2022-09-03T09:42:31.102Z,100.00
2022-09-03T09:45:00.685Z,100.00
2022-09-03T09:47:32.414Z,100.00
2022-09-03T09:50:05.717Z,100.00
2022-09-03T09:52:45.854Z,98.83
2022-09-03T09:55:23.946Z,96.82
2022-09-03T09:57:56.238Z,97.74
2022-09-03T10:00:26.462Z,91.70
2022-09-03T10:02:57.089Z,87.25
2022-09-03T10:05:30.963Z,89.33
2022-09-03T10:08:02.104Z,88.20
2022-09-03T10:10:37.806Z,88.60
2022-09-03T10:13:09.977Z,86.66
2022-09-03T10:15:44.290Z,83.33
2022-09-03T10:18:18.371Z,82.21
2022-09-03T10:20:56.164Z,78.61
2022-09-03T10:23:28.389Z,77.30
2022-09-03T10:26:07.359Z,77.08
2022-09-03T10:28:41.465Z,77.58
2022-09-03T10:31:29.142Z,79.29
2022-09-03T10:34:03.674Z,78.36
2022-09-03T10:36:40.619Z,78.51
2022-09-03T10:39:17.828Z,77.48
2022-09-03T10:41:59.571Z,77.91
2022-09-03T10:44:48.368Z,77.02
2022-09-03T10:47:29.609Z,74.60
2022-09-03T10:50:03.184Z,73.11
2022-09-03T10:52:42.650Z,70.01
2022-09-03T10:55:23.214Z,70.26
2022-09-03T10:58:12.375Z,67.26
2022-09-03T11:00:45.802Z,67.32
2022-09-03T11:03:31.233Z,65.77
2022-09-03T11:06:06.347Z,64.93
2022-09-03T11:08:43.138Z,68.08
2022-09-03T11:11:16.424Z,67.98
2022-09-03T11:13:50.310Z,69.08
2022-09-03T11:16:25.719Z,69.54
2022-09-03T11:18:59.065Z,70.86
2022-09-03T11:21:30.193Z,72.58
2022-09-03T11:24:08.837Z,72.54
2022-09-03T11:26:39.676Z,73.74
2022-09-03T11:29:14.559Z,75.53
2022-09-03T11:31:53.014Z,74.82
2022-09-03T11:34:31.983Z,74.45
2022-09-03T11:37:10.678Z,76.07
2022-09-03T11:39:43.044Z,74.77
2022-09-03T11:42:14.546Z,71.69
2022-09-03T11:44:51.733Z,69.11
2022-09-03T11:47:26.001Z,68.20
2022-09-03T11:50:10.769Z,68.91
2022-09-03T11:52:41.054Z,68.35
2022-09-03T11:55:13.203Z,66.51
2022-09-03T11:57:45.569Z,67.73
2022-09-03T12:00:18.670Z,68.61
2022-09-03T12:02:50.009Z,68.61
2022-09-03T12:05:29.341Z,68.66
2022-09-03T12:08:21.516Z,69.71
2022-09-03T12:11:01.742Z,65.72
2022-09-03T12:13:41.011Z,65.46
2022-09-03T12:16:28.204Z,63.18
2022-09-03T12:18:59.518Z,59.57
2022-09-03T12:21:29.206Z,62.48
2022-09-03T12:24:01.133Z,59.49
2022-09-03T12:26:34.613Z,58.47
2022-09-03T12:29:05.830Z,57.32
2022-09-03T12:31:48.525Z,56.77
2022-09-03T12:34:19.673Z,55.94
2022-09-03T12:36:51.673Z,55.50
2022-09-03T12:40:04.460Z,54.81
2022-09-03T12:42:21.886Z,56.15
2022-09-03T12:44:51.333Z,53.67
2022-09-03T12:47:38.398Z,53.33
2022-09-03T12:50:11.574Z,53.06
2022-09-03T12:52:42.914Z,52.88
2022-09-03T12:55:21.897Z,53.71
2022-09-03T12:57:57.770Z,49.99
2022-09-03T13:00:33.129Z,49.58
2022-09-03T13:03:05.652Z,49.07
2022-09-03T13:05:37.254Z,48.91
2022-09-03T13:08:08.449Z,48.32
2022-09-03T13:10:41.935Z,47.14
2022-09-03T13:13:22.797Z,46.26
2022-09-03T13:16:16.279Z,45.76
2022-09-03T13:18:50.513Z,45.31
2022-09-03T13:21:25.150Z,44.51
2022-09-03T13:24:04.627Z,44.81
2022-09-03T13:26:42.467Z,45.57
2022-09-03T13:29:37.398Z,43.71
2022-09-03T13:32:17.314Z,43.96
2022-09-03T13:34:51.906Z,44.13
2022-09-03T13:37:28.042Z,42.93
2022-09-03T13:40:00.676Z,42.72
2022-09-03T13:42:35.507Z,44.20
2022-09-03T13:45:13.474Z,42.75
2022-09-03T13:48:06.945Z,42.21
2022-09-03T13:50:41.637Z,42.06
2022-09-03T13:53:12.466Z,42.25
2022-09-03T13:55:48.193Z,42.01
2022-09-03T13:58:24.694Z,42.26
2022-09-03T14:01:11.613Z,44.28
2022-09-03T14:03:49.181Z,45.09
2022-09-03T14:06:27.981Z,45.30
2022-09-03T14:09:06.435Z,45.94
2022-09-03T14:11:43.939Z,46.42
2022-09-03T14:14:19.223Z,47.87
2022-09-03T14:16:59.271Z,48.40
2022-09-03T14:19:37.059Z,49.25
2022-09-03T14:22:10.478Z,49.25
2022-09-03T14:24:47.957Z,53.37
2022-09-03T14:27:26.847Z,49.15
2022-09-03T14:30:01.146Z,50.02
2022-09-03T14:32:42.375Z,50.30
2022-09-03T14:35:28.019Z,50.31
2022-09-03T14:38:22.644Z,50.53
2022-09-03T14:41:00.769Z,49.70
2022-09-03T14:43:44.856Z,49.52
2022-09-03T14:46:33.646Z,50.69
2022-09-03T14:49:28.025Z,51.37
2022-09-03T14:52:26.978Z,50.79
2022-09-03T14:55:09.986Z,50.37
2022-09-03T14:57:50.952Z,51.50
2022-09-03T15:00:21.933Z,50.73
2022-09-03T15:03:05.710Z,50.89
2022-09-03T15:06:09.103Z,51.01
2022-09-03T15:08:48.125Z,51.00
2022-09-03T15:11:22.191Z,50.90
2022-09-03T15:13:55.470Z,51.49
2022-09-03T15:16:35.022Z,51.51
2022-09-03T15:19:13.502Z,51.83
2022-09-03T15:21:57.954Z,51.28
2022-09-03T15:24:35.640Z,51.20
2022-09-03T15:27:15.078Z,51.46
2022-09-03T15:29:52.433Z,54.85
2022-09-03T15:32:33.280Z,51.56
2022-09-03T15:35:08.283Z,52.29
2022-09-03T15:37:45.927Z,51.34
2022-09-03T15:40:30.376Z,52.14
2022-09-03T15:43:06.830Z,52.26
2022-09-03T15:45:40.854Z,53.17
2022-09-03T15:48:23.564Z,53.77
2022-09-03T15:50:57.170Z,53.99
2022-09-03T15:53:38.238Z,53.50
2022-09-03T15:56:21.566Z,53.22
2022-09-03T15:59:00.956Z,53.73
2022-09-03T16:01:37.468Z,54.08
2022-09-03T16:04:20.897Z,54.64
2022-09-03T16:06:55.250Z,54.39
2022-09-03T16:09:44.512Z,55.65
2022-09-03T16:12:22.935Z,54.28
2022-09-03T16:14:58.043Z,55.10
2022-09-03T16:17:31.555Z,55.17
2022-09-03T16:20:04.989Z,55.65
2022-09-03T16:22:41.682Z,55.86
2022-09-03T16:25:17.823Z,56.35
2022-09-03T16:27:56.338Z,57.75
2022-09-03T16:30:36.362Z,58.29
2022-09-03T16:33:13.841Z,58.71
2022-09-03T16:35:51.123Z,58.60
2022-09-03T16:38:32.837Z,59.51
2022-09-03T16:41:11.763Z,59.09
2022-09-03T16:43:47.685Z,61.24
2022-09-03T16:46:26.734Z,61.95
2022-09-03T16:49:16.725Z,61.39
2022-09-03T16:51:49.351Z,62.65
2022-09-03T16:54:31.812Z,62.02
2022-09-03T16:57:15.178Z,62.38
2022-09-03T16:59:57.075Z,63.89
2022-09-03T17:02:52.776Z,62.36
2022-09-03T17:05:59.435Z,63.03
2022-09-03T17:08:34.351Z,64.13
2022-09-03T17:11:12.025Z,65.15
2022-09-03T17:13:59.419Z,65.99
2022-09-03T17:16:39.951Z,65.85
2022-09-03T17:19:13.250Z,66.16
2022-09-03T17:21:50.098Z,67.46
2022-09-03T17:24:36.366Z,69.11
2022-09-03T17:27:31.290Z,69.80
2022-09-03T17:30:12.213Z,70.70
2022-09-03T17:33:07.441Z,69.68
2022-09-03T17:35:46.622Z,70.02
2022-09-03T17:38:29.830Z,69.94
2022-09-03T17:41:08.147Z,71.51
2022-09-03T17:43:44.697Z,71.16
2022-09-03T17:46:28.807Z,73.21
2022-09-03T17:49:01.563Z,72.95
2022-09-03T17:51:37.892Z,72.58
2022-09-03T17:54:11.362Z,72.77
2022-09-03T17:56:48.833Z,73.31
2022-09-03T17:59:24.906Z,74.92
2022-09-03T18:02:02.905Z,74.64
2022-09-03T18:04:40.989Z,75.97
2022-09-03T18:07:16.672Z,76.66
2022-09-03T18:09:54.022Z,77.76
2022-09-03T18:12:31.389Z,78.21
2022-09-03T18:15:07.738Z,79.48
2022-09-03T18:17:44.646Z,79.97
2022-09-03T18:20:28.318Z,80.73
2022-09-03T18:23:15.677Z,81.17
2022-09-03T18:25:59.776Z,82.49
2022-09-03T18:28:48.007Z,83.16
2022-09-03T18:31:31.358Z,84.73
2022-09-03T18:34:15.987Z,85.62
2022-09-03T18:36:58.638Z,86.97
2022-09-03T18:39:42.697Z,87.81
2022-09-03T18:42:30.278Z,89.13
2022-09-03T18:45:22.027Z,89.46
2022-09-03T18:48:20.255Z,91.04
2022-09-03T18:51:09.286Z,92.55
2022-09-03T18:53:55.563Z,92.56
2022-09-03T18:56:42.465Z,93.70
2022-09-03T18:59:33.139Z,95.00
2022-09-03T19:02:19.857Z,95.58
2022-09-03T19:05:21.855Z,95.78
2022-09-03T19:08:11.686Z,96.77
2022-09-03T19:10:59.328Z,97.43
2022-09-03T19:13:47.873Z,98.57
2022-09-03T19:16:37.158Z,99.22
2022-09-03T19:19:49.747Z,100.00
2022-09-03T19:22:37.029Z,100.00
2022-09-03T19:25:25.866Z,100.00
2022-09-03T19:28:21.674Z,100.00
2022-09-03T19:31:12.690Z,100.00
2022-09-03T19:34:01.795Z,100.00
2022-09-03T19:36:52.043Z,100.00
2022-09-03T19:39:46.615Z,100.00
2022-09-03T19:42:38.240Z,100.00
2022-09-03T19:45:27.746Z,100.00
2022-09-03T19:48:17.251Z,100.00
2022-09-03T19:51:08.271Z,100.00
2022-09-03T19:53:50.320Z,100.00
2022-09-03T19:56:38.210Z,100.00
2022-09-03T19:59:27.911Z,100.00
2022-09-03T20:02:09.855Z,100.00
2022-09-03T20:04:55.662Z,100.00
2022-09-03T20:07:38.049Z,100.00
2022-09-03T20:10:25.189Z,100.00
2022-09-03T20:13:04.434Z,100.00
2022-09-03T20:15:45.921Z,100.00
2022-09-03T20:18:20.114Z,100.00
2022-09-03T20:20:53.470Z,100.00
2022-09-03T20:23:25.342Z,100.00
2022-09-03T20:26:10.415Z,100.00
2022-09-03T20:28:53.699Z,100.00
2022-09-03T20:31:28.651Z,100.00
2022-09-03T20:34:11.253Z,100.00
2022-09-03T20:36:49.759Z,100.00
2022-09-03T20:39:32.739Z,100.00
2022-09-03T20:42:14.550Z,100.00
2022-09-03T20:45:06.583Z,100.00
2022-09-03T20:48:00.400Z,100.00
2022-09-03T20:50:47.823Z,100.00
2022-09-03T20:53:38.214Z,100.00
2022-09-03T20:56:13.569Z,100.00
2022-09-03T20:58:48.533Z,100.00
2022-09-03T21:01:23.252Z,100.00
2022-09-03T21:04:04.721Z,100.00
2022-09-03T21:06:37.649Z,100.00
2022-09-03T21:09:20.518Z,100.00
2022-09-03T21:11:56.255Z,100.00
2022-09-03T21:14:33.585Z,100.00
2022-09-03T21:17:18.779Z,100.00
2022-09-03T21:20:03.550Z,100.00
2022-09-03T21:22:38.223Z,100.00
2022-09-03T21:25:11.987Z,100.00
2022-09-03T21:27:45.336Z,100.00
2022-09-03T21:30:17.562Z,100.00
2022-09-03T21:32:50.487Z,100.00
2022-09-03T21:35:28.836Z,100.00
2022-09-03T21:38:01.447Z,100.00
2022-09-03T21:40:33.810Z,100.00
2022-09-03T21:43:09.739Z,100.00
2022-09-03T21:45:43.826Z,100.00
2022-09-03T21:48:18.296Z,100.00
2022-09-03T21:50:53.869Z,100.00
2022-09-03T21:53:30.054Z,100.00
2022-09-03T21:56:13.609Z,100.00
2022-09-03T21:58:54.266Z,100.00
2022-09-03T22:01:27.731Z,100.00
2022-09-03T22:03:57.219Z,100.00
2022-09-03T22:06:32.241Z,100.00
2022-09-03T22:09:06.319Z,100.00
2022-09-03T22:11:39.241Z,100.00
2022-09-03T22:14:12.255Z,100.00
2022-09-03T22:16:46.473Z,100.00
2022-09-03T22:19:16.014Z,100.00
2022-09-03T22:21:59.876Z,100.00
2022-09-03T22:24:37.767Z,100.00
2022-09-03T22:27:14.383Z,100.00
2022-09-03T22:29:49.411Z,100.00
2022-09-03T22:32:36.269Z,100.00
2022-09-03T22:35:16.380Z,100.00
2022-09-03T22:37:58.734Z,100.00
2022-09-03T22:40:29.635Z,100.00
2022-09-03T22:43:11.585Z,100.00
2022-09-03T22:46:02.702Z,100.00
2022-09-03T22:48:42.330Z,100.00
2022-09-03T22:51:12.732Z,100.00
2022-09-03T22:53:56.283Z,100.00
2022-09-03T22:56:26.019Z,100.00
2022-09-03T22:58:59.330Z,100.00
2022-09-03T23:01:31.565Z,100.00
2022-09-03T23:04:07.131Z,100.00
2022-09-03T23:06:39.095Z,100.00
2022-09-03T23:09:13.317Z,100.00
2022-09-03T23:11:45.081Z,100.00
2022-09-03T23:14:16.468Z,100.00
2022-09-03T23:16:51.268Z,100.00
2022-09-03T23:21:57.100Z,100.00
2022-09-03T23:24:31.950Z,100.00
2022-09-03T23:27:03.314Z,100.00
2022-09-03T23:29:37.648Z,100.00
2022-09-03T23:32:09.421Z,100.00
2022-09-03T23:34:40.769Z,100.00
2022-09-03T23:37:33.768Z,100.00
2022-09-03T23:40:34.973Z,100.00
2022-09-03T23:43:35.460Z,100.00
2022-09-03T23:46:09.143Z,100.00
2022-09-03T23:48:49.344Z,100.00
2022-09-03T23:51:23.777Z,100.00
2022-09-03T23:54:01.023Z,100.00
2022-09-03T23:56:56.945Z,100.00
2022-09-03T23:59:34.242Z,100.00
